createdAt,value
2022-11-23T00:00:23.447Z,9.37
2022-11-23T00:01:55.042Z,9.30
2022-11-23T00:03:27.278Z,9.29
2022-11-23T00:04:59.063Z,9.33
2022-11-23T00:06:31.039Z,9.34
2022-11-23T00:08:03.494Z,9.36
2022-11-23T00:09:36.173Z,9.29
2022-11-23T00:11:08.241Z,9.25
2022-11-23T00:12:39.822Z,9.25
2022-11-23T00:14:11.785Z,9.24
2022-11-23T00:15:43.439Z,9.24
2022-11-23T00:17:15.235Z,9.23
2022-11-23T00:18:47.750Z,9.21
2022-11-23T00:20:19.636Z,9.21
2022-11-23T00:21:51.924Z,9.20
2022-11-23T00:23:23.750Z,9.19
2022-11-23T00:24:55.550Z,9.20
2022-11-23T00:26:27.237Z,9.25
2022-11-23T00:27:59.187Z,9.25
2022-11-23T00:29:31.363Z,9.21
2022-11-23T00:31:03.839Z,9.24
2022-11-23T00:32:35.498Z,9.26
2022-11-23T00:34:07.100Z,9.27
2022-11-23T00:35:38.805Z,9.28
2022-11-23T00:37:11.879Z,9.28
2022-11-23T00:38:43.594Z,9.25
2022-11-23T00:40:16.769Z,9.21
2022-11-23T00:41:48.567Z,9.17
2022-11-23T00:43:20.229Z,9.15
2022-11-23T00:44:52.679Z,9.18
2022-11-23T00:46:25.431Z,9.16
2022-11-23T00:47:58.925Z,9.17
2022-11-23T00:49:31.085Z,9.19
2022-11-23T00:51:03.565Z,9.23
2022-11-23T00:52:36.332Z,9.25
2022-11-23T00:54:08.029Z,9.29
2022-11-23T00:55:39.683Z,9.33
2022-11-23T00:57:11.549Z,9.36
2022-11-23T00:58:43.243Z,9.37
2022-11-23T01:00:16.461Z,9.36
2022-11-23T01:01:49.536Z,9.39
2022-11-23T01:03:21.290Z,9.38
2022-11-23T01:04:52.987Z,9.37
2022-11-23T01:06:25.426Z,9.33
2022-11-23T01:07:57.130Z,9.35
2022-11-23T01:09:29.009Z,9.39
2022-11-23T01:11:01.865Z,9.40
2022-11-23T01:12:33.944Z,9.42
2022-11-23T01:14:05.553Z,9.43
2022-11-23T01:15:37.141Z,9.46
2022-11-23T01:17:08.682Z,9.49
2022-11-23T01:18:40.349Z,9.52
2022-11-23T01:20:12.060Z,9.52
2022-11-23T01:21:43.840Z,9.48
2022-11-23T01:23:15.506Z,9.44
2022-11-23T01:24:47.173Z,9.45
2022-11-23T01:26:18.761Z,9.46
2022-11-23T01:27:50.606Z,9.50
2022-11-23T01:29:22.875Z,9.47
2022-11-23T01:30:54.668Z,9.43
2022-11-23T01:32:26.283Z,9.41
2022-11-23T01:33:58.537Z,9.42
2022-11-23T01:35:30.157Z,9.45
2022-11-23T01:37:01.984Z,9.49
2022-11-23T01:38:33.524Z,9.57
2022-11-23T01:40:05.419Z,9.64
2022-11-23T01:41:38.753Z,9.70
2022-11-23T01:43:16.706Z,9.78
2022-11-23T01:44:48.262Z,9.87
2022-11-23T01:46:20.171Z,9.94
2022-11-23T01:47:51.880Z,9.99
2022-11-23T01:49:23.492Z,10.00
2022-11-23T01:50:55.168Z,9.99
2022-11-23T01:52:26.744Z,9.94
2022-11-23T01:53:59.745Z,9.89
2022-11-23T01:55:31.447Z,9.84
2022-11-23T01:57:03.923Z,9.78
2022-11-23T01:58:37.602Z,9.71
2022-11-23T02:00:09.647Z,9.66
2022-11-23T02:01:41.331Z,9.62
2022-11-23T02:03:12.845Z,9.63
2022-11-23T02:04:46.300Z,9.63
2022-11-23T02:06:18.511Z,9.64
2022-11-23T02:07:50.126Z,9.67
2022-11-23T02:09:21.940Z,9.72
2022-11-23T02:10:53.583Z,9.76
2022-11-23T02:12:25.145Z,9.76
2022-11-23T02:13:57.337Z,9.78
2022-11-23T02:15:29.178Z,9.83
2022-11-23T02:17:00.783Z,9.89
2022-11-23T02:18:32.527Z,9.95
2022-11-23T02:20:13.801Z,10.02
2022-11-23T02:21:47.984Z,10.10
2022-11-23T02:23:25.819Z,10.13
2022-11-23T02:24:57.508Z,10.12
2022-11-23T02:26:30.094Z,10.10
2022-11-23T02:28:01.791Z,10.08
2022-11-23T02:29:33.777Z,10.05
2022-11-23T02:31:05.640Z,10.05
2022-11-23T02:32:37.297Z,10.03
2022-11-23T02:34:09.109Z,10.00
2022-11-23T02:35:52.620Z,10.02
2022-11-23T02:37:24.149Z,10.06
2022-11-23T02:38:56.245Z,10.09
2022-11-23T02:40:28.149Z,10.11
2022-11-23T02:41:59.786Z,10.13
2022-11-23T02:43:31.318Z,10.11
2022-11-23T02:45:08.715Z,10.16
2022-11-23T02:46:40.523Z,10.15
2022-11-23T02:48:12.387Z,10.15
2022-11-23T02:49:46.045Z,10.20
2022-11-23T02:51:17.691Z,10.19
2022-11-23T02:52:49.202Z,10.21
2022-11-23T02:54:20.928Z,10.17
2022-11-23T02:55:52.688Z,10.25
2022-11-23T02:57:24.209Z,10.26
2022-11-23T02:58:55.813Z,10.26
2022-11-23T03:00:27.999Z,10.32
2022-11-23T03:02:00.055Z,10.35
2022-11-23T03:03:31.640Z,10.35
2022-11-23T03:05:03.162Z,10.35
2022-11-23T03:06:34.777Z,10.42
2022-11-23T03:08:06.638Z,10.48
2022-11-23T03:09:38.341Z,10.51
2022-11-23T03:11:09.956Z,10.55
2022-11-23T03:12:41.614Z,10.57
2022-11-23T03:14:13.391Z,10.59
2022-11-23T03:15:45.678Z,10.63
2022-11-23T03:17:17.260Z,10.65
2022-11-23T03:18:48.816Z,10.63
2022-11-23T03:20:20.369Z,10.57
2022-11-23T03:21:52.009Z,10.55
2022-11-23T03:23:23.778Z,10.53
2022-11-23T03:24:55.474Z,10.55
2022-11-23T03:26:26.958Z,10.59
2022-11-23T03:27:58.714Z,10.65
2022-11-23T03:29:30.783Z,10.67
2022-11-23T03:31:02.529Z,10.63
2022-11-23T03:32:34.337Z,10.57
2022-11-23T03:34:06.211Z,10.57
2022-11-23T03:35:38.695Z,10.55
2022-11-23T03:37:13.174Z,10.53
2022-11-23T03:38:44.686Z,10.53
2022-11-23T03:40:16.333Z,10.53
2022-11-23T03:41:48.111Z,10.50
2022-11-23T03:43:20.092Z,10.48
2022-11-23T03:44:51.619Z,10.43
2022-11-23T03:46:23.505Z,10.45
2022-11-23T03:47:55.096Z,10.47
2022-11-23T03:49:26.819Z,10.45
2022-11-23T03:50:58.340Z,10.43
2022-11-23T03:52:29.878Z,10.37
2022-11-23T03:54:01.406Z,10.33
2022-11-23T03:55:33.548Z,10.28
2022-11-23T03:57:05.093Z,10.27
2022-11-23T03:58:36.678Z,10.22
2022-11-23T04:00:09.025Z,10.19
2022-11-23T04:01:40.654Z,10.16
2022-11-23T04:03:12.718Z,10.18
2022-11-23T04:04:44.356Z,10.21
2022-11-23T04:06:15.973Z,10.20
2022-11-23T04:07:47.962Z,10.17
2022-11-23T04:09:19.646Z,10.19
2022-11-23T04:10:51.708Z,10.19
2022-11-23T04:12:23.333Z,10.20
2022-11-23T04:13:54.954Z,10.22
2022-11-23T04:15:26.570Z,10.24
2022-11-23T04:16:58.208Z,10.25
2022-11-23T04:18:29.823Z,10.28
2022-11-23T04:20:01.429Z,10.29
2022-11-23T04:21:32.977Z,10.35
2022-11-23T04:23:07.139Z,10.38
2022-11-23T04:24:42.716Z,10.42
2022-11-23T04:26:14.343Z,10.45
2022-11-23T04:27:45.962Z,10.46
2022-11-23T04:29:17.613Z,10.53
2022-11-23T04:30:49.289Z,10.56
2022-11-23T04:32:20.983Z,10.63
2022-11-23T04:33:52.687Z,10.67
2022-11-23T04:35:24.462Z,10.70
2022-11-23T04:36:55.962Z,10.70
2022-11-23T04:38:27.660Z,10.65
2022-11-23T04:39:59.313Z,10.65
2022-11-23T04:41:30.888Z,10.68
2022-11-23T04:43:02.814Z,10.71
2022-11-23T04:44:34.301Z,10.80
2022-11-23T04:46:05.846Z,10.81
2022-11-23T04:47:37.412Z,10.86
2022-11-23T04:49:09.506Z,10.90
2022-11-23T04:50:44.631Z,10.96
2022-11-23T04:52:18.369Z,11.04
2022-11-23T04:53:50.066Z,11.11
2022-11-23T04:55:22.000Z,11.13
2022-11-23T04:56:54.433Z,11.15
2022-11-23T04:58:27.878Z,11.17
2022-11-23T05:00:02.106Z,11.12
2022-11-23T05:01:33.991Z,11.01
2022-11-23T05:03:06.050Z,10.96
2022-11-23T05:04:37.568Z,10.88
2022-11-23T05:06:09.435Z,10.88
2022-11-23T05:07:41.219Z,10.84
2022-11-23T05:09:12.964Z,10.83
2022-11-23T05:10:45.229Z,10.79
2022-11-23T05:12:16.863Z,10.79
2022-11-23T05:13:48.599Z,10.84
2022-11-23T05:15:20.269Z,10.87
2022-11-23T05:16:51.849Z,10.86
2022-11-23T05:18:23.451Z,10.86
2022-11-23T05:19:56.611Z,10.86
2022-11-23T05:21:28.155Z,10.89
2022-11-23T05:23:00.167Z,10.88
2022-11-23T05:24:31.799Z,10.81
2022-11-23T05:26:03.511Z,10.81
2022-11-23T05:27:35.418Z,10.81
2022-11-23T05:29:07.057Z,10.82
2022-11-23T05:30:38.791Z,10.81
2022-11-23T05:32:10.444Z,10.74
2022-11-23T05:33:42.065Z,10.72
2022-11-23T05:35:14.598Z,10.71
2022-11-23T05:36:46.313Z,10.68
2022-11-23T05:38:17.837Z,10.66
2022-11-23T05:39:49.475Z,10.67
2022-11-23T05:41:21.117Z,10.67
2022-11-23T05:42:58.649Z,10.65
2022-11-23T05:44:30.146Z,10.66
2022-11-23T05:46:02.025Z,10.68
2022-11-23T05:47:33.688Z,10.69
2022-11-23T05:49:05.311Z,10.70
2022-11-23T05:50:36.884Z,10.68
2022-11-23T05:52:08.486Z,10.66
2022-11-23T05:53:40.093Z,10.63
2022-11-23T05:55:12.312Z,10.57
2022-11-23T05:56:44.085Z,10.53
2022-11-23T05:58:15.789Z,10.49
2022-11-23T05:59:47.411Z,10.47
2022-11-23T06:01:19.460Z,10.43
2022-11-23T06:02:51.154Z,10.41
2022-11-23T06:04:22.848Z,10.41
2022-11-23T06:05:54.446Z,10.43
2022-11-23T06:07:26.061Z,10.47
2022-11-23T06:09:10.425Z,10.45
2022-11-23T06:10:46.785Z,10.53
2022-11-23T06:12:24.567Z,10.57
2022-11-23T06:17:01.866Z,10.71
2022-11-23T06:18:40.380Z,10.71
2022-11-23T06:20:16.079Z,10.72
2022-11-23T06:28:02.660Z,10.80
2022-11-23T06:29:35.123Z,10.90
2022-11-23T06:31:07.118Z,10.97
2022-11-23T06:32:38.753Z,11.01
2022-11-23T06:34:10.392Z,11.05
2022-11-23T06:35:41.892Z,11.11
2022-11-23T06:37:13.948Z,11.14
2022-11-23T06:38:45.534Z,11.13
2022-11-23T06:40:17.668Z,11.18
2022-11-23T06:41:49.382Z,11.28
2022-11-23T06:43:21.025Z,11.34
2022-11-23T06:44:52.613Z,11.32
2022-11-23T06:46:24.354Z,11.31
2022-11-23T06:47:56.769Z,11.25
2022-11-23T06:49:29.287Z,11.26
2022-11-23T06:51:01.467Z,11.33
2022-11-23T06:52:33.063Z,11.39
2022-11-23T06:54:04.891Z,11.40
2022-11-23T06:55:36.420Z,11.39
2022-11-23T06:57:08.318Z,11.40
2022-11-23T06:58:39.970Z,11.37
2022-11-23T07:00:11.983Z,11.38
2022-11-23T07:01:43.762Z,11.34
2022-11-23T07:03:22.306Z,11.28
2022-11-23T07:04:54.266Z,11.25
2022-11-23T07:06:26.004Z,11.24
2022-11-23T07:07:57.621Z,11.20
2022-11-23T07:24:32.832Z,11.13
2022-11-23T07:26:09.251Z,11.21
2022-11-23T07:27:40.871Z,11.33
2022-11-23T07:29:12.540Z,11.43
2022-11-23T07:30:44.364Z,11.52
2022-11-23T07:32:16.094Z,11.63
2022-11-23T07:33:47.786Z,11.73
2022-11-23T07:35:19.742Z,11.85
2022-11-23T07:36:51.562Z,12.00
2022-11-23T07:38:23.337Z,12.19
2022-11-23T07:39:57.881Z,12.36
2022-11-23T07:41:29.894Z,12.54
2022-11-23T07:43:01.868Z,12.69
2022-11-23T07:44:33.566Z,12.84
2022-11-23T07:46:05.253Z,12.91
2022-11-23T07:47:36.908Z,13.07
2022-11-23T07:49:08.640Z,13.19
2022-11-23T07:50:40.697Z,13.26
2022-11-23T07:52:12.650Z,13.38
2022-11-23T07:53:44.279Z,13.48
2022-11-23T07:55:16.543Z,13.60
2022-11-23T07:56:48.305Z,13.70
2022-11-23T07:58:20.104Z,13.75
2022-11-23T07:59:51.768Z,13.73
2022-11-23T08:01:23.579Z,13.71
2022-11-23T08:03:25.678Z,13.78
2022-11-23T08:04:46.860Z,13.88
2022-11-23T08:06:18.529Z,13.99
2022-11-23T08:07:50.285Z,14.09
2022-11-23T08:09:22.492Z,14.16
2022-11-23T08:10:54.798Z,14.26
2022-11-23T08:12:26.929Z,14.34
2022-11-23T08:13:58.507Z,14.45
2022-11-23T08:15:30.446Z,14.47
2022-11-23T08:17:02.050Z,14.53
2022-11-23T08:18:33.780Z,14.60
2022-11-23T08:20:05.988Z,14.65
2022-11-23T08:21:38.054Z,14.76
2022-11-23T08:23:10.450Z,14.75
2022-11-23T08:24:42.528Z,14.71
2022-11-23T08:26:14.389Z,14.68
2022-11-23T08:27:46.144Z,14.65
2022-11-23T08:29:17.983Z,14.64
2022-11-23T08:30:50.395Z,14.63
2022-11-23T08:32:22.524Z,14.59
2022-11-23T08:33:55.778Z,14.53
2022-11-23T08:35:30.672Z,14.63
2022-11-23T08:37:02.758Z,14.70
2022-11-23T08:38:34.921Z,14.70
2022-11-23T08:40:07.482Z,14.73
2022-11-23T08:41:39.053Z,14.77
2022-11-23T08:43:10.883Z,14.89
2022-11-23T08:44:42.643Z,14.96
2022-11-23T08:46:14.337Z,15.03
2022-11-23T08:47:46.100Z,15.15
2022-11-23T08:49:17.736Z,15.34
2022-11-23T08:50:51.259Z,15.40
2022-11-23T08:52:24.609Z,15.50
2022-11-23T08:53:57.662Z,15.54
2022-11-23T08:55:29.277Z,15.52
2022-11-23T08:57:00.852Z,15.48
2022-11-23T08:58:32.611Z,15.45
2022-11-23T09:00:05.163Z,15.44
2022-11-23T09:01:36.815Z,15.43
2022-11-23T09:03:08.399Z,15.43
2022-11-23T09:04:40.576Z,15.44
2022-11-23T09:06:13.485Z,15.44
2022-11-23T09:07:45.448Z,15.45
2022-11-23T09:09:18.995Z,15.42
2022-11-23T09:10:51.150Z,15.40
2022-11-23T09:12:22.722Z,15.48
2022-11-23T09:13:54.644Z,15.53
2022-11-23T09:15:26.180Z,15.59
2022-11-23T09:16:57.782Z,15.70
2022-11-23T09:18:30.729Z,15.66
2022-11-23T09:20:02.533Z,15.60
2022-11-23T09:21:35.903Z,15.62
2022-11-23T09:23:13.689Z,15.69
2022-11-23T09:24:46.242Z,15.85
2022-11-23T09:26:17.855Z,15.97
2022-11-23T09:27:50.219Z,16.08
2022-11-23T09:29:22.134Z,16.07
2022-11-23T09:30:53.771Z,16.15
2022-11-23T09:32:25.401Z,16.24
2022-11-23T09:33:56.996Z,16.16
2022-11-23T09:35:28.835Z,16.13
2022-11-23T09:37:00.392Z,16.04
2022-11-23T09:38:56.669Z,15.96
2022-11-23T09:40:23.750Z,15.88
2022-11-23T09:41:55.261Z,15.81
2022-11-23T09:43:41.021Z,15.65
2022-11-23T09:45:19.500Z,15.53
2022-11-23T09:47:02.378Z,15.41
2022-11-23T09:48:40.057Z,15.41
2022-11-23T09:50:14.590Z,15.48
2022-11-23T09:51:48.186Z,15.50
2022-11-23T09:53:21.289Z,15.52
2022-11-23T09:54:54.379Z,15.52
2022-11-23T09:56:27.905Z,15.49
2022-11-23T09:58:00.894Z,15.41
2022-11-23T09:59:37.720Z,15.37
2022-11-23T10:01:13.557Z,15.26
2022-11-23T10:02:45.102Z,15.21
2022-11-23T10:04:17.854Z,15.11
2022-11-23T10:06:16.188Z,15.02
2022-11-23T10:07:50.995Z,14.93
2022-11-23T10:09:31.828Z,14.84
2022-11-23T10:11:24.335Z,14.77
2022-11-23T10:12:58.534Z,14.65
2022-11-23T10:14:36.328Z,14.53
2022-11-23T10:16:27.351Z,14.47
2022-11-23T10:17:59.497Z,14.43
2022-11-23T10:19:39.770Z,14.39
2022-11-23T10:21:14.318Z,14.41
2022-11-23T10:22:45.943Z,14.38
2022-11-23T10:24:21.152Z,14.38
2022-11-23T10:25:52.830Z,14.43
2022-11-23T10:27:24.731Z,14.48
2022-11-23T10:28:57.004Z,14.60
2022-11-23T10:30:28.591Z,14.71
2022-11-23T10:32:01.104Z,14.77
2022-11-23T10:33:34.244Z,14.88
2022-11-23T10:35:12.353Z,15.03
2022-11-23T10:36:43.959Z,15.08
2022-11-23T10:38:19.035Z,15.06
2022-11-23T10:39:50.824Z,15.06
2022-11-23T10:41:22.457Z,15.14
2022-11-23T10:42:54.373Z,15.19
2022-11-23T10:44:32.335Z,15.17
2022-11-23T10:46:23.094Z,15.13
2022-11-23T10:47:55.560Z,15.27
2022-11-23T10:49:29.592Z,15.40
2022-11-23T10:51:34.428Z,15.44
2022-11-23T10:53:06.313Z,15.68
2022-11-23T10:54:48.402Z,15.86
2022-11-23T10:56:20.313Z,16.08
2022-11-23T10:57:52.354Z,16.08
2022-11-23T10:59:27.662Z,15.97
2022-11-23T11:01:00.103Z,16.04
2022-11-23T11:02:38.908Z,16.04
2022-11-23T11:04:10.929Z,16.02
2022-11-23T11:07:41.904Z,15.92
2022-11-23T11:09:32.266Z,15.84
2022-11-23T11:25:18.683Z,14.47
2022-11-23T11:26:52.803Z,14.33
2022-11-23T11:28:25.605Z,14.30
2022-11-23T11:29:59.665Z,14.38
2022-11-23T11:31:34.298Z,14.39
2022-11-23T11:33:09.791Z,14.40
2022-11-23T11:34:56.578Z,14.44
2022-11-23T11:36:29.110Z,14.51
2022-11-23T11:38:01.688Z,14.58
2022-11-23T11:39:38.955Z,14.68
2022-11-23T11:41:11.420Z,14.85
2022-11-23T11:42:57.220Z,14.92
2022-11-23T11:44:29.045Z,14.97
2022-11-23T11:46:28.082Z,15.14
2022-11-23T11:47:55.034Z,15.36
2022-11-23T11:49:28.756Z,15.43
2022-11-23T11:51:01.101Z,15.42
2022-11-23T11:52:37.570Z,15.46
2022-11-23T11:54:30.293Z,15.56
2022-11-23T11:56:04.940Z,15.50
2022-11-23T11:57:37.571Z,15.45
2022-11-23T11:59:28.578Z,15.40
2022-11-23T12:01:04.381Z,15.35
2022-11-23T12:21:39.238Z,17.56
2022-11-23T12:23:29.863Z,18.01
2022-11-23T12:25:20.263Z,18.16
2022-11-23T12:26:54.503Z,18.12
2022-11-23T12:28:30.133Z,18.10
2022-11-23T12:30:17.288Z,18.29
2022-11-23T12:31:53.490Z,18.41
2022-11-23T12:33:25.722Z,18.25
2022-11-23T12:35:01.879Z,18.19
2022-11-23T12:36:49.719Z,18.27
2022-11-23T12:38:43.816Z,18.04
2022-11-23T12:40:18.731Z,17.92
2022-11-23T12:42:02.352Z,17.80
2022-11-23T12:43:50.381Z,17.46
2022-11-23T12:45:48.218Z,17.15
2022-11-23T12:47:55.120Z,16.72
2022-11-23T12:49:29.234Z,16.65
2022-11-23T12:51:04.938Z,16.77
2022-11-23T12:52:42.274Z,16.76
2022-11-23T12:54:13.943Z,16.74
2022-11-23T12:56:09.299Z,16.69
2022-11-23T12:57:46.793Z,16.72
2022-11-23T12:59:21.524Z,16.81
2022-11-23T13:00:55.843Z,17.00
2022-11-23T13:02:27.480Z,17.12
2022-11-23T13:04:17.519Z,17.17
2022-11-23T13:06:24.653Z,17.28
2022-11-23T13:08:00.733Z,17.31
2022-11-23T13:09:50.744Z,17.41
2022-11-23T13:11:22.591Z,17.34
2022-11-23T13:12:58.895Z,17.25
2022-11-23T13:14:34.448Z,17.24
2022-11-23T13:16:09.579Z,17.31
2022-11-23T13:17:50.506Z,17.35
2022-11-23T13:19:31.151Z,17.27
2022-11-23T13:21:12.203Z,17.35
2022-11-23T13:22:45.683Z,17.39
2022-11-23T13:24:26.632Z,17.37
2022-11-23T13:26:16.795Z,17.34
2022-11-23T13:27:48.364Z,17.38
2022-11-23T13:29:39.251Z,17.34
2022-11-23T13:31:15.592Z,17.26
2022-11-23T13:32:57.783Z,17.16
2022-11-23T13:34:44.831Z,16.96
2022-11-23T13:38:25.399Z,16.64
2022-11-23T13:39:57.763Z,16.52
2022-11-23T13:41:52.364Z,16.44
2022-11-23T13:43:26.887Z,16.42
2022-11-23T13:45:36.576Z,16.48
2022-11-23T13:47:08.416Z,16.55
2022-11-23T13:48:56.694Z,16.59
2022-11-23T13:50:29.682Z,16.64
2022-11-23T13:52:24.655Z,16.67
2022-11-23T13:54:07.575Z,16.65
2022-11-23T13:55:39.921Z,16.58
2022-11-23T13:57:12.780Z,16.49
2022-11-23T13:58:55.862Z,16.42
2022-11-23T14:00:46.406Z,16.28
2022-11-23T14:02:28.620Z,16.13
2022-11-23T14:04:04.325Z,16.02
2022-11-23T14:05:54.992Z,15.88
2022-11-23T14:07:27.869Z,15.81
2022-11-23T14:09:08.774Z,15.71
2022-11-23T14:10:43.690Z,15.56
2022-11-23T14:12:24.778Z,15.46
2022-11-23T14:13:57.717Z,15.31
2022-11-23T14:15:32.176Z,15.11
2022-11-23T14:17:15.627Z,14.97
2022-11-23T14:18:49.780Z,14.86
2022-11-23T14:20:27.784Z,14.75
2022-11-23T14:22:09.692Z,14.69
2022-11-23T14:23:54.287Z,14.67
2022-11-23T14:25:30.482Z,14.63
2022-11-23T14:27:24.097Z,14.63
2022-11-23T14:29:04.207Z,14.60
2022-11-23T14:30:43.361Z,14.56
2022-11-23T14:32:33.987Z,14.50
2022-11-23T14:34:14.407Z,14.50
2022-11-23T14:35:50.180Z,14.53
2022-11-23T14:37:40.109Z,14.53
2022-11-23T14:39:18.990Z,14.52
2022-11-23T14:40:54.380Z,14.52
2022-11-23T14:42:28.224Z,14.55
2022-11-23T14:44:11.705Z,14.53
2022-11-23T14:45:45.305Z,14.52
2022-11-23T14:47:27.478Z,14.52
2022-11-23T14:49:07.846Z,14.51
2022-11-23T14:50:45.377Z,14.52
2022-11-23T14:52:21.621Z,14.48
2022-11-23T14:53:55.527Z,14.44
2022-11-23T14:55:31.619Z,14.41
2022-11-23T14:57:04.413Z,14.41
2022-11-23T14:58:37.808Z,14.43
2022-11-23T15:00:32.408Z,14.41
2022-11-23T15:02:16.659Z,14.37
2022-11-23T15:04:02.305Z,14.40
2022-11-23T15:05:34.159Z,14.43
2022-11-23T15:07:20.556Z,14.43
2022-11-23T15:08:58.858Z,14.43
2022-11-23T15:10:33.864Z,14.42
2022-11-23T15:12:06.375Z,14.41
2022-11-23T15:13:44.460Z,14.46
2022-11-23T15:15:20.023Z,14.41
2022-11-23T15:16:51.808Z,14.36
2022-11-23T15:18:27.480Z,14.32
2022-11-23T15:19:59.518Z,14.29
2022-11-23T15:21:32.198Z,14.27
2022-11-23T15:23:04.045Z,14.25
2022-11-23T15:24:36.049Z,14.21
2022-11-23T15:26:46.804Z,14.18
2022-11-23T15:28:19.936Z,14.14
2022-11-23T15:29:55.495Z,14.13
2022-11-23T15:31:31.104Z,14.10
2022-11-23T15:33:05.953Z,14.13
2022-11-23T15:34:37.757Z,14.15
2022-11-23T15:36:09.509Z,14.15
2022-11-23T15:37:45.402Z,14.14
2022-11-23T15:39:20.100Z,14.11
2022-11-23T15:40:52.100Z,14.06
2022-11-23T15:42:25.464Z,14.07
2022-11-23T15:43:58.057Z,14.03
2022-11-23T15:45:36.131Z,14.08
2022-11-23T15:47:08.146Z,14.08
2022-11-23T15:48:39.847Z,14.06
2022-11-23T15:50:14.190Z,14.06
2022-11-23T15:51:45.943Z,14.05
2022-11-23T15:53:18.018Z,14.06
2022-11-23T15:54:49.839Z,14.04
2022-11-23T15:56:50.542Z,13.97
2022-11-23T15:58:22.164Z,13.87
2022-11-23T15:59:57.521Z,13.82
2022-11-23T16:01:29.648Z,13.74
2022-11-23T16:03:19.926Z,13.63
2022-11-23T16:05:04.828Z,13.49
2022-11-23T16:06:42.867Z,13.37
2022-11-23T16:08:26.752Z,13.33
2022-11-23T16:10:11.943Z,13.31
2022-11-23T16:11:52.213Z,13.31
2022-11-23T16:13:33.901Z,13.32
2022-11-23T16:15:32.929Z,13.34
2022-11-23T16:17:16.825Z,13.34
2022-11-23T16:18:49.128Z,13.27
2022-11-23T16:20:21.787Z,13.25
2022-11-23T16:21:59.131Z,13.29
2022-11-23T16:23:37.283Z,13.33
2022-11-23T16:25:16.146Z,13.34
2022-11-23T16:26:47.858Z,13.32
2022-11-23T16:28:38.073Z,13.30
2022-11-23T16:30:25.069Z,13.26
2022-11-23T16:31:59.963Z,13.22
2022-11-23T16:33:34.720Z,13.19
2022-11-23T16:35:15.660Z,13.17
2022-11-23T16:36:47.305Z,13.09
2022-11-23T16:38:18.964Z,13.00
2022-11-23T16:39:50.765Z,12.95
2022-11-23T16:41:22.452Z,12.92
2022-11-23T16:42:54.323Z,12.93
2022-11-23T16:44:26.039Z,12.94
2022-11-23T16:45:57.782Z,12.96
2022-11-23T16:47:30.676Z,12.99
2022-11-23T16:49:02.477Z,13.00
2022-11-23T16:50:34.503Z,13.00
2022-11-23T16:52:07.324Z,13.01
2022-11-23T16:54:11.489Z,12.99
2022-11-23T16:55:31.318Z,13.00
2022-11-23T16:57:04.866Z,13.03
2022-11-23T16:58:36.430Z,13.02
2022-11-23T17:00:09.068Z,13.02
2022-11-23T17:01:40.688Z,13.02
2022-11-23T17:03:15.738Z,13.07
2022-11-23T17:04:47.681Z,13.08
2022-11-23T17:06:23.054Z,13.08
2022-11-23T17:07:55.176Z,13.13
2022-11-23T17:09:26.802Z,13.19
2022-11-23T17:10:58.338Z,13.18
2022-11-23T17:12:30.521Z,13.15
2022-11-23T17:14:02.445Z,13.13
2022-11-23T17:15:34.033Z,13.00
2022-11-23T17:17:05.633Z,12.93
2022-11-23T17:18:37.359Z,12.87
2022-11-23T17:20:12.259Z,12.83
2022-11-23T17:21:43.979Z,12.81
2022-11-23T17:23:15.770Z,12.78
2022-11-23T17:24:47.714Z,12.75
2022-11-23T17:26:19.829Z,12.69
2022-11-23T17:27:52.081Z,12.64
2022-11-23T17:29:24.287Z,12.63
2022-11-23T17:30:56.311Z,12.66
2022-11-23T17:32:28.119Z,12.69
2022-11-23T17:33:59.994Z,12.72
2022-11-23T17:35:36.767Z,12.75
2022-11-23T17:37:12.997Z,12.75
2022-11-23T17:38:47.331Z,12.77
2022-11-23T17:40:19.763Z,12.81
2022-11-23T17:41:51.402Z,12.82
2022-11-23T17:43:23.516Z,12.83
2022-11-23T17:44:56.332Z,12.85
2022-11-23T17:46:28.434Z,12.85
2022-11-23T17:48:03.278Z,12.86
2022-11-23T17:49:36.153Z,12.85
2022-11-23T17:51:09.089Z,12.83
2022-11-23T17:52:44.487Z,12.86
2022-11-23T17:54:16.102Z,12.89
2022-11-23T17:55:47.787Z,12.88
2022-11-23T17:57:20.362Z,12.86
2022-11-23T17:58:52.967Z,12.85
2022-11-23T18:00:24.512Z,12.81
2022-11-23T18:01:56.865Z,12.78
2022-11-23T18:03:28.950Z,12.77
2022-11-23T18:05:00.913Z,12.71
2022-11-23T18:06:32.676Z,12.67
2022-11-23T18:08:04.708Z,12.62
2022-11-23T18:09:36.380Z,12.55
2022-11-23T18:11:08.117Z,12.51
2022-11-23T18:12:40.352Z,12.50
2022-11-23T18:14:12.053Z,12.51
2022-11-23T18:15:43.706Z,12.52
2022-11-23T18:17:17.487Z,12.50
2022-11-23T18:18:49.326Z,12.51
2022-11-23T18:20:21.545Z,12.53
2022-11-23T18:21:53.412Z,12.53
2022-11-23T18:23:25.125Z,12.51
2022-11-23T18:24:56.621Z,12.51
2022-11-23T18:26:30.178Z,12.46
2022-11-23T18:28:01.779Z,12.42
2022-11-23T18:29:34.221Z,12.41
2022-11-23T18:31:06.283Z,12.38
2022-11-23T18:32:38.719Z,12.33
2022-11-23T18:34:10.513Z,12.31
2022-11-23T18:35:42.212Z,12.30
2022-11-23T18:37:13.820Z,12.30
2022-11-23T18:38:45.753Z,12.26
2022-11-23T18:40:17.366Z,12.24
2022-11-23T18:41:48.968Z,12.22
2022-11-23T18:43:20.829Z,12.22
2022-11-23T18:44:52.549Z,12.22
2022-11-23T18:46:24.580Z,12.25
2022-11-23T18:47:56.777Z,12.22
2022-11-23T18:49:28.725Z,12.23
2022-11-23T18:51:01.621Z,12.26
2022-11-23T18:52:33.564Z,12.22
2022-11-23T18:54:05.269Z,12.13
2022-11-23T18:55:36.919Z,12.05
2022-11-23T18:57:08.667Z,12.00
2022-11-23T18:58:40.893Z,11.97
2022-11-23T19:00:14.161Z,11.95
2022-11-23T19:01:45.815Z,11.94
2022-11-23T19:03:17.936Z,11.94
2022-11-23T19:04:49.695Z,11.96
2022-11-23T19:06:22.222Z,11.97
2022-11-23T19:07:54.911Z,11.94
2022-11-23T19:09:26.905Z,11.88
2022-11-23T19:11:16.322Z,11.83
2022-11-23T19:12:48.031Z,11.81
2022-11-23T19:14:19.568Z,11.76
2022-11-23T19:15:51.451Z,11.76
2022-11-23T19:17:23.751Z,11.71
2022-11-23T19:18:55.892Z,11.70
2022-11-23T19:20:28.783Z,11.65
2022-11-23T19:22:00.653Z,11.68
2022-11-23T19:23:32.185Z,11.69
2022-11-23T19:25:04.239Z,11.68
2022-11-23T19:26:36.732Z,11.65
2022-11-23T19:28:08.615Z,11.65
2022-11-23T19:29:40.346Z,11.65
2022-11-23T19:31:12.933Z,11.63
2022-11-23T19:32:45.555Z,11.60
2022-11-23T19:34:17.687Z,11.61
2022-11-23T19:35:49.281Z,11.60
2022-11-23T19:37:20.797Z,11.59
2022-11-23T19:38:52.496Z,11.55
2022-11-23T19:40:26.336Z,11.55
2022-11-23T19:41:58.070Z,11.50
2022-11-23T19:43:29.810Z,11.48
2022-11-23T19:45:01.366Z,11.41
2022-11-23T19:46:33.513Z,11.36
2022-11-23T19:48:05.376Z,11.33
2022-11-23T19:49:37.235Z,11.27
2022-11-23T19:51:12.298Z,11.22
2022-11-23T19:53:10.401Z,11.23
2022-11-23T19:54:35.508Z,11.27
2022-11-23T19:56:08.311Z,11.27
2022-11-23T19:57:40.066Z,11.31
2022-11-23T19:59:12.026Z,11.35
2022-11-23T20:00:45.907Z,11.37
2022-11-23T20:02:24.531Z,11.42
2022-11-23T20:03:58.057Z,11.45
2022-11-23T20:05:29.855Z,11.49
2022-11-23T20:07:01.510Z,11.51
2022-11-23T20:08:33.043Z,11.55
2022-11-23T20:10:05.551Z,11.59
2022-11-23T20:11:38.259Z,11.58
2022-11-23T20:13:09.848Z,11.59
2022-11-23T20:14:41.709Z,11.58
2022-11-23T20:16:14.552Z,11.57
2022-11-23T20:17:48.782Z,11.56
2022-11-23T20:19:20.830Z,11.55
2022-11-23T20:20:53.363Z,11.56
2022-11-23T20:22:24.987Z,11.55
2022-11-23T20:24:04.774Z,11.53
2022-11-23T20:25:38.179Z,11.51
2022-11-23T20:27:09.885Z,11.52
2022-11-23T20:28:44.623Z,11.53
2022-11-23T20:30:16.520Z,11.51
2022-11-23T20:31:48.116Z,11.47
2022-11-23T20:33:19.739Z,11.46
2022-11-23T20:34:51.336Z,11.51
2022-11-23T20:36:24.496Z,11.56
2022-11-23T20:37:56.106Z,11.60
2022-11-23T20:39:27.774Z,11.61
2022-11-23T20:40:59.490Z,11.63
2022-11-23T20:42:31.479Z,11.70
2022-11-23T20:44:12.836Z,11.70
2022-11-23T20:45:44.449Z,11.65
2022-11-23T20:47:16.213Z,11.64
2022-11-23T20:48:47.929Z,11.65
2022-11-23T20:50:25.098Z,11.65
2022-11-23T20:51:57.154Z,11.62
2022-11-23T20:53:29.349Z,11.66
2022-11-23T20:55:01.260Z,11.65
2022-11-23T20:56:34.212Z,11.64
2022-11-23T20:58:07.580Z,11.65
2022-11-23T20:59:39.502Z,11.64
2022-11-23T21:01:15.183Z,11.65
2022-11-23T21:02:52.903Z,11.64
2022-11-23T21:04:24.529Z,11.64
2022-11-23T21:05:57.280Z,11.67
2022-11-23T21:07:28.889Z,11.67
2022-11-23T21:09:00.776Z,11.64
2022-11-23T21:10:51.347Z,11.60
2022-11-23T21:12:45.071Z,11.55
2022-11-23T21:14:21.688Z,11.47
2022-11-23T21:15:54.006Z,11.43
2022-11-23T21:17:25.672Z,11.43
2022-11-23T21:18:57.793Z,11.38
2022-11-23T21:20:33.772Z,11.35
2022-11-23T21:22:11.451Z,11.32